Terminal Aerodrome Forecast
Issued by NWS Springfield, MO

Current Version | Previous Version | Text Only | Print | Product List | Glossary On
Versions: 1 2 3 4 5 6 7 8 9 10 11 12 13
000
FTUS43 KSGF 301121
TAFSGF
TAF
KSGF 301121Z 3012/3112 15007KT P6SM BKN060
     FM301400 17007KT P6SM VCSH BKN045 PROB30 3021/3101 -TSRA
      OVC040CB
     FM310100 15008KT P6SM FEW090 BKN250=

USA.gov is the U.S. government's official web portal to all federal, state and local government web resources and services.